Time;durP1;ratioP1;P1;durP2;ratioP2;P2;SDS_P1;SDS_P2;PMS_P1;PMS_P2;Temp;Humidity;BMP_temperature;BMP_pressure;BME280_temperature;BME280_humidity;BME280_pressure;Samples;Min_cycle;Max_cycle;Signal;HPM_P1;HPM_P2
2021/06/18 00:00:27;;;;;;;6.65;3.50;;;16.70;99.90;;;16.01;91.98;100655.84;4152352;28;20378;-68
2021/06/18 00:02:28;;;;;;;10.80;3.97;;;16.70;99.90;;;15.82;93.30;100656.53;4136559;28;20398;-68
2021/06/18 00:04:29;;;;;;;9.80;3.35;;;16.70;99.90;;;15.93;93.14;100645.34;4137616;28;20030;-68
2021/06/18 00:06:30;;;;;;;9.80;3.63;;;16.70;99.90;;;15.95;92.96;100661.09;4136329;28;20031;-67
2021/06/18 00:08:31;;;;;;;9.50;4.07;;;16.70;99.90;;;15.91;93.00;100650.06;4152450;28;20018;-68
2021/06/18 00:10:32;;;;;;;9.75;3.97;;;16.70;99.90;;;15.93;93.37;100648.00;4136454;28;20036;-68
2021/06/18 00:12:33;;;;;;;15.70;5.20;;;16.70;99.90;;;16.01;92.88;100653.19;4120052;28;20023;-68
2021/06/18 00:14:34;;;;;;;10.27;4.05;;;16.70;99.90;;;16.00;93.81;100661.38;4136044;28;20038;-68
2021/06/18 00:16:35;;;;;;;7.38;3.85;;;16.70;99.90;;;15.94;94.57;100659.47;4136145;28;20027;-68
2021/06/18 00:18:37;;;;;;;9.73;4.45;;;16.70;99.90;;;15.91;94.60;100641.25;4137339;28;20054;-68
2021/06/18 00:20:38;;;;;;;10.90;3.95;;;16.70;99.90;;;16.09;94.15;100657.56;4137439;28;20462;-68
2021/06/18 00:22:40;;;;;;;10.30;4.45;;;16.70;99.90;;;16.02;94.43;100651.34;4137344;28;20486;-68
2021/06/18 00:24:41;;;;;;;16.25;5.72;;;16.70;99.90;;;16.09;94.25;100652.22;4137270;28;20076;-67
2021/06/18 00:26:42;;;;;;;9.45;4.60;;;16.80;99.90;;;16.12;93.99;100651.00;4137114;28;20502;-68
2021/06/18 00:28:43;;;;;;;9.95;4.22;;;16.80;99.90;;;16.09;95.04;100657.56;4137429;28;20030;-68
2021/06/18 00:30:44;;;;;;;11.00;4.50;;;16.80;99.90;;;16.04;95.14;100647.47;4135858;28;20076;-68
2021/06/18 00:32:45;;;;;;;8.35;4.93;;;16.80;99.90;;;16.16;94.85;100646.97;4137452;28;20014;-68
2021/06/18 00:34:46;;;;;;;10.50;5.00;;;16.80;99.90;;;16.18;94.60;100640.41;4137117;28;20030;-68
2021/06/18 00:36:47;;;;;;;12.07;4.88;;;16.80;99.90;;;16.20;94.54;100635.72;4137379;28;20026;-68
2021/06/18 00:38:48;;;;;;;12.35;6.10;;;16.90;99.90;;;15.90;95.41;100631.59;4135791;28;20409;-68
2021/06/18 00:40:49;;;;;;;14.85;5.57;;;16.80;99.90;;;16.07;95.77;100638.28;4136165;28;20073;-68
2021/06/18 00:42:50;;;;;;;15.23;6.18;;;16.80;99.90;;;15.97;95.73;100638.63;4135599;28;20060;-67
2021/06/18 00:44:51;;;;;;;13.18;5.50;;;16.70;99.90;;;16.03;96.49;100637.88;4136892;28;20073;-68
2021/06/18 00:46:52;;;;;;;10.13;5.45;;;16.70;99.90;;;16.13;96.10;100639.38;4136926;28;20062;-68
2021/06/18 00:48:53;;;;;;;13.75;5.68;;;16.70;99.90;;;16.00;95.95;100627.59;4136963;28;20026;-68
2021/06/18 00:50:54;;;;;;;13.57;5.38;;;16.80;99.90;;;15.96;96.86;100636.16;4135675;28;20026;-68
2021/06/18 00:52:55;;;;;;;12.13;5.82;;;16.80;99.90;;;15.96;96.96;100631.66;4137029;28;20032;-68
2021/06/18 00:54:56;;;;;;;14.70;5.43;;;16.70;99.90;;;16.18;96.50;100635.09;4135145;28;20529;-68
2021/06/18 00:57:00;;;;;;;11.07;5.60;;;16.80;99.90;;;15.92;97.45;100619.75;4135810;28;20031;-68
2021/06/18 00:59:01;;;;;;;9.30;6.10;;;16.80;99.90;;;15.91;97.69;100619.97;4135523;28;20113;-68
2021/06/18 01:01:03;;;;;;;12.95;6.20;;;16.70;99.90;;;16.06;97.39;100623.34;4135539;28;20034;-68
2021/06/18 01:03:04;;;;;;;15.10;6.95;;;16.80;99.90;;;15.98;97.53;100615.50;4135644;28;20030;-68
2021/06/18 01:05:09;;;;;;;18.08;7.32;;;16.70;99.90;;;16.01;97.73;100613.28;4136745;28;20030;-68
2021/06/18 01:07:19;;;;;;;13.43;7.63;;;16.70;99.90;;;15.99;97.66;100603.84;4136653;28;20030;-67
2021/06/18 01:09:22;;;;;;;11.93;5.63;;;16.70;99.90;;;16.05;98.23;100608.38;4136563;28;20101;-68
2021/06/18 01:11:57;;;;;;;12.15;6.18;;;16.70;99.90;;;15.93;98.11;100599.28;4135538;28;20041;-68
2021/06/18 01:14:13;;;;;;;11.48;6.50;;;16.70;99.90;;;15.99;98.95;100602.00;4135836;28;20022;-68
2021/06/18 01:16:38;;;;;;;11.05;6.15;;;16.70;99.90;;;16.07;99.17;100609.00;4136602;28;20038;-68
2021/06/18 01:18:59;;;;;;;13.68;6.70;;;16.70;99.90;;;15.96;99.36;100593.59;4136377;28;20026;-68
2021/06/18 01:21:35;;;;;;;11.45;6.78;;;16.70;99.90;;;15.89;100.00;100598.03;4135708;28;20034;-68
2021/06/18 01:23:39;;;;;;;15.60;7.72;;;16.70;99.90;;;15.77;100.00;100600.41;4135274;28;20091;-67
2021/06/18 01:25:46;;;;;;;13.63;8.43;;;16.70;99.90;;;15.80;100.00;100594.69;4136511;28;20030;-68
2021/06/18 01:28:48;;;;;;;15.88;7.93;;;16.70;99.90;;;15.69;100.00;100603.22;4135176;28;20034;-68
2021/06/18 01:30:50;;;;;;;13.43;7.05;;;16.60;99.90;;;15.94;100.00;100600.94;4133003;28;20048;-68
2021/06/18 01:33:04;;;;;;;12.77;7.47;;;16.60;99.90;;;15.92;100.00;100593.16;4136296;28;20037;-67
2021/06/18 01:35:11;;;;;;;16.85;8.02;;;16.60;99.90;;;15.96;100.00;100593.59;4135308;28;20062;-68
2021/06/18 01:37:17;;;;;;;14.57;7.97;;;16.60;99.90;;;15.76;100.00;100600.59;4135226;28;20030;-68
2021/06/18 01:39:20;;;;;;;18.02;9.55;;;16.60;99.90;;;15.76;100.00;100603.28;4136006;28;20082;-67
2021/06/18 01:41:27;;;;;;;12.82;8.18;;;16.60;99.90;;;15.78;100.00;100587.94;4134819;28;20035;-67
2021/06/18 01:43:33;;;;;;;15.20;8.45;;;16.60;99.90;;;15.82;100.00;100598.00;4134787;28;20105;-68
2021/06/18 01:45:37;;;;;;;13.90;8.45;;;16.60;99.90;;;15.81;100.00;100601.66;4134620;28;20551;-68
2021/06/18 01:47:39;;;;;;;16.90;8.90;;;16.60;99.90;;;15.87;100.00;100595.56;4134735;28;20426;-68
2021/06/18 01:49:43;;;;;;;14.02;8.57;;;16.60;99.90;;;15.82;100.00;100591.84;4134989;28;20027;-68
2021/06/18 01:51:45;;;;;;;14.20;8.67;;;16.60;99.90;;;15.97;100.00;100597.91;4136083;28;20513;-68
2021/06/18 01:53:50;;;;;;;16.00;10.30;;;16.60;99.90;;;16.02;100.00;100598.13;4135967;28;20029;-67
2021/06/18 01:55:52;;;;;;;18.90;8.95;;;16.60;99.90;;;16.05;100.00;100600.41;4134677;28;20101;-67
2021/06/18 01:57:58;;;;;;;15.70;8.07;;;16.60;99.90;;;15.92;100.00;100584.34;4134787;28;20034;-67
2021/06/18 02:00:00;;;;;;;13.73;8.80;;;16.60;99.90;;;15.99;100.00;100587.88;4118563;28;20185;-68
2021/06/18 02:02:04;;;;;;;17.25;9.70;;;16.70;99.90;;;15.97;100.00;100587.25;4134674;28;20041;-67
2021/06/18 02:04:06;;;;;;;;;;;16.60;99.90;;;15.97;100.00;100585.44;4134934;28;20053;-67
2021/06/18 02:06:08;;;;;;;15.32;8.43;;;16.70;99.90;;;15.77;100.00;100587.09;4117974;28;19916;-69
2021/06/18 02:08:13;;;;;;;12.50;7.93;;;16.60;99.90;;;15.95;100.00;100591.94;4134662;28;20066;-68
2021/06/18 02:10:14;;;;;;;;;;;16.60;99.90;;;15.88;100.00;100591.09;4135138;28;20030;-68
2021/06/18 02:12:17;;;;;;;16.33;8.70;;;16.60;99.90;;;15.89;100.00;100590.03;4134839;28;19910;-68
2021/06/18 02:14:21;;;;;;;14.70;8.38;;;16.60;99.90;;;15.92;100.00;100587.00;4150396;28;20045;-67
2021/06/18 02:16:25;;;;;;;;;;;16.60;99.90;;;15.91;100.00;100585.38;4151278;28;20053;-67
2021/06/18 02:18:29;;;;;;;13.40;8.90;;;16.50;99.90;;;16.10;100.00;100592.66;4134547;28;19917;-68
2021/06/18 02:20:32;;;;;;;15.00;8.30;;;16.60;99.90;;;16.09;100.00;100585.72;4134675;28;20184;-68
2021/06/18 02:22:35;;;;;;;16.35;9.13;;;16.60;99.90;;;16.16;100.00;100581.22;4134539;28;20560;-67
2021/06/18 02:24:38;;;;;;;15.23;8.70;;;16.60;99.90;;;16.14;100.00;100585.94;4150731;28;20025;-67
2021/06/18 02:26:41;;;;;;;14.70;8.27;;;16.60;99.90;;;16.10;100.00;100575.88;4165393;28;20113;-67
2021/06/18 02:28:42;;;;;;;15.30;8.55;;;16.60;99.90;;;16.07;100.00;100578.94;4134573;28;20034;-67
2021/06/18 02:30:43;;;;;;;12.85;8.63;;;16.60;99.90;;;16.20;100.00;100579.00;4134246;28;20027;-68
2021/06/18 02:32:49;;;;;;;13.65;8.38;;;16.60;99.90;;;16.16;100.00;100578.56;4134485;28;20026;-67
2021/06/18 02:34:50;;;;;;;13.23;8.40;;;16.60;99.90;;;16.27;100.00;100580.69;4134443;28;20106;-68
2021/06/18 02:36:51;;;;;;;17.10;8.27;;;16.60;99.90;;;16.16;100.00;100583.88;4134648;28;20035;-67
2021/06/18 02:38:52;;;;;;;12.95;8.63;;;16.70;99.90;;;16.20;100.00;100579.81;4135534;28;20036;-67
2021/06/18 02:40:53;;;;;;;15.18;8.85;;;16.60;99.90;;;16.22;100.00;100574.31;4134346;28;20034;-67
2021/06/18 02:42:54;;;;;;;14.45;9.07;;;16.60;99.90;;;16.22;100.00;100571.66;4134198;28;20015;-67
2021/06/18 02:44:55;;;;;;;13.20;9.23;;;16.70;99.90;;;16.21;100.00;100570.84;4156254;28;20071;-67
2021/06/18 02:47:04;;;;;;;16.20;8.63;;;16.70;99.90;;;16.13;100.00;100572.84;4135607;28;20065;-67
2021/06/18 02:49:13;;;;;;;15.05;10.07;;;16.70;99.90;;;16.10;100.00;100568.69;4134421;28;20034;-67
2021/06/18 02:51:39;;;;;;;16.30;9.30;;;16.70;99.90;;;16.20;100.00;100574.50;4134388;28;20026;-67
2021/06/18 02:53:59;;;;;;;17.42;9.00;;;16.70;99.90;;;16.04;100.00;100572.16;4134466;28;20035;-67
2021/06/18 02:56:05;;;;;;;18.30;9.07;;;16.70;99.90;;;16.04;100.00;100572.16;4134426;28;20022;-67
2021/06/18 02:58:24;;;;;;;14.32;9.35;;;16.60;99.90;;;15.97;100.00;100572.13;4134400;28;20037;-67
2021/06/18 03:00:29;;;;;;;13.57;8.68;;;16.60;99.90;;;15.94;100.00;100569.03;4133967;28;20023;-67
2021/06/18 03:02:36;;;;;;;12.80;9.52;;;16.60;99.90;;;15.87;100.00;100562.84;4134341;28;20122;-67
2021/06/18 03:04:41;;;;;;;12.23;9.35;;;16.50;99.90;;;15.95;100.00;100568.00;4150045;28;20033;-67
2021/06/18 03:06:45;;;;;;;13.55;9.68;;;16.60;99.90;;;15.99;100.00;100570.09;4134173;28;20071;-67
2021/06/18 03:08:52;;;;;;;;;;;16.60;99.90;;;16.06;100.00;100578.09;4135639;28;20149;-67
2021/06/18 03:10:54;;;;;;;16.48;10.00;;;16.60;99.90;;;15.97;100.00;100569.47;4135539;28;19910;-67
2021/06/18 03:13:10;;;;;;;14.82;9.90;;;16.60;99.90;;;15.91;100.00;100561.44;4134420;28;20030;-67
2021/06/18 03:15:12;;;;;;;16.50;10.07;;;16.60;99.90;;;15.95;100.00;100565.34;4133826;28;20101;-68
2021/06/18 03:17:18;;;;;;;14.43;9.65;;;16.50;99.90;;;15.99;100.00;100561.28;4134634;28;20026;-68
2021/06/18 03:19:20;;;;;;;18.17;10.93;;;16.50;99.90;;;15.73;100.00;100558.44;4137219;28;20037;-68
2021/06/18 03:21:23;;;;;;;14.13;10.15;;;16.50;99.90;;;15.87;100.00;100568.97;4137025;28;20026;-67
2021/06/18 03:23:25;;;;;;;15.00;9.95;;;16.50;99.90;;;15.93;100.00;100560.22;4136967;28;20033;-67
2021/06/18 03:25:28;;;;;;;16.02;9.73;;;16.50;99.90;;;15.71;100.00;100540.00;4169799;28;20025;-67
2021/06/18 03:27:32;;;;;;;12.50;9.03;;;16.50;99.90;;;15.95;100.00;100560.84;4137089;28;20073;-67
2021/06/18 03:29:36;;;;;;;14.80;10.65;;;16.50;99.90;;;15.91;100.00;100564.91;4136669;28;20034;-68
2021/06/18 03:31:38;;;;;;;16.40;10.57;;;16.40;99.90;;;15.94;100.00;100569.84;4138062;28;20030;-67
2021/06/18 03:33:41;;;;;;;16.77;10.27;;;16.50;99.90;;;15.93;100.00;100559.38;4138139;28;20037;-67
2021/06/18 03:35:43;;;;;;;13.47;9.40;;;16.50;99.90;;;15.88;100.00;100562.66;4136952;28;20076;-67
2021/06/18 03:37:45;;;;;;;13.68;9.65;;;16.50;99.90;;;15.82;100.00;100566.09;4136781;28;20266;-67
2021/06/18 03:39:47;;;;;;;13.13;9.38;;;16.50;99.90;;;15.81;100.00;100555.63;4136551;28;20077;-67
2021/06/18 03:41:48;;;;;;;14.52;9.30;;;16.50;99.90;;;15.76;100.00;100571.34;4136824;28;20036;-67
2021/06/18 03:43:51;;;;;;;11.50;8.65;;;16.40;99.90;;;15.89;100.00;100569.59;4137901;28;20556;-67
2021/06/18 03:46:01;;;;;;;11.20;8.82;;;16.40;99.90;;;15.83;100.00;100565.06;4136796;28;20335;-67
2021/06/18 03:48:03;;;;;;;11.00;8.88;;;16.50;99.90;;;15.76;100.00;100547.41;4136820;28;20031;-67
2021/06/18 03:50:06;;;;;;;15.18;8.77;;;16.40;99.90;;;15.66;100.00;100545.09;4120509;28;20398;-67
2021/06/18 03:52:07;;;;;;;11.65;8.73;;;16.40;99.90;;;15.80;100.00;100552.13;4136684;28;20046;-67
2021/06/18 03:54:09;;;;;;;13.25;8.82;;;16.40;99.90;;;15.71;100.00;100552.50;4136569;28;20035;-68
2021/06/18 03:56:12;;;;;;;12.07;9.23;;;16.40;99.90;;;15.73;100.00;100553.13;4136518;28;20514;-68
2021/06/18 03:58:16;;;;;;;14.00;9.25;;;16.40;99.90;;;15.57;100.00;100556.06;4152687;28;20069;-67
2021/06/18 04:00:18;;;;;;;12.32;9.20;;;16.40;99.90;;;15.64;100.00;100552.44;4152198;28;20468;-67
2021/06/18 04:02:20;;;;;;;12.40;9.13;;;16.30;99.90;;;15.60;100.00;100542.38;4136359;28;20461;-67
2021/06/18 04:04:24;;;;;;;13.68;8.55;;;16.30;99.90;;;15.76;100.00;100552.75;4136615;28;20030;-67
2021/06/18 04:06:28;;;;;;;13.50;8.80;;;16.30;99.90;;;15.73;100.00;100551.28;4136394;28;20138;-67
2021/06/18 04:08:30;;;;;;;13.82;8.98;;;16.40;99.90;;;15.74;100.00;100549.47;4136339;28;20337;-67
2021/06/18 04:10:32;;;;;;;16.02;8.25;;;16.40;99.90;;;15.64;100.00;100548.97;4136279;28;20064;-67
2021/06/18 04:12:33;;;;;;;13.45;9.73;;;16.30;99.90;;;15.76;100.00;100553.56;4136435;28;20030;-67
2021/06/18 04:14:36;;;;;;;13.75;8.02;;;16.30;99.90;;;15.90;100.00;100559.78;4136127;28;20081;-67
2021/06/18 04:16:38;;;;;;;15.00;8.85;;;16.40;99.90;;;15.93;100.00;100554.91;4137444;28;20034;-67
2021/06/18 04:18:46;;;;;;;12.25;8.73;;;16.40;99.90;;;15.86;100.00;100553.22;4136152;28;20058;-67
2021/06/18 04:20:51;;;;;;;14.75;10.25;;;16.50;99.90;;;15.87;100.00;100552.19;4136354;28;20065;-67
2021/06/18 04:22:52;;;;;;;;;;;16.40;99.90;;;15.99;100.00;100558.63;4136631;28;20074;-67
2021/06/18 04:24:53;;;;;;;12.95;8.60;;;16.50;99.90;;;16.08;100.00;100560.09;4136121;28;20424;-67
2021/06/18 04:26:54;;;;;;;13.80;9.05;;;16.50;99.90;;;15.87;100.00;100552.19;4137369;28;20093;-67
2021/06/18 04:28:55;;;;;;;13.35;9.75;;;16.50;99.90;;;15.93;100.00;100548.75;4135008;28;20029;-67
2021/06/18 04:30:57;;;;;;;13.23;9.38;;;16.50;99.90;;;15.97;100.00;100547.34;4137143;28;20402;-67
2021/06/18 04:32:58;;;;;;;12.20;8.75;;;16.50;99.90;;;15.93;100.00;100554.06;4135820;28;20018;-67
2021/06/18 04:34:59;;;;;;;14.02;9.27;;;16.50;99.90;;;16.02;100.00;100540.44;4136091;28;20460;-67
2021/06/18 04:37:01;;;;;;;13.32;8.88;;;16.60;99.90;;;16.17;100.00;100558.09;4136064;28;20065;-67
2021/06/18 04:39:02;;;;;;;12.77;9.45;;;16.60;99.90;;;16.05;100.00;100549.84;4135786;28;20089;-67
2021/06/18 04:41:03;;;;;;;14.75;10.15;;;16.60;99.90;;;16.00;100.00;100552.28;4135919;28;20022;-67
2021/06/18 04:43:04;;;;;;;12.55;10.07;;;16.60;99.90;;;16.00;100.00;100544.31;4135742;28;20031;-67
2021/06/18 04:45:07;;;;;;;14.43;10.75;;;16.60;99.90;;;16.00;100.00;100547.78;4135685;28;20026;-67
2021/06/18 04:47:08;;;;;;;14.27;10.45;;;16.60;99.90;;;16.08;100.00;100557.44;4135886;28;20034;-67
2021/06/18 04:49:09;;;;;;;16.00;10.57;;;16.60;99.90;;;16.09;100.00;100561.75;4135764;28;20033;-67
2021/06/18 04:51:10;;;;;;;14.85;11.05;;;16.60;99.90;;;16.07;100.00;100562.97;4137019;28;20393;-67
2021/06/18 04:53:11;;;;;;;14.98;10.98;;;16.70;99.90;;;16.00;100.00;100562.94;4136951;28;20050;-67
2021/06/18 04:55:15;;;;;;;17.27;12.18;;;16.70;99.90;;;15.92;100.00;100571.03;4135877;28;20472;-68
2021/06/18 04:57:16;;;;;;;15.68;11.43;;;16.60;99.90;;;16.01;100.00;100569.88;4168208;28;20029;-67
2021/06/18 04:59:19;;;;;;;13.85;10.90;;;16.60;99.90;;;16.00;100.00;100568.25;4135253;28;20040;-67
2021/06/18 05:01:20;;;;;;;18.75;11.77;;;16.60;99.90;;;16.07;100.00;100565.63;4136934;28;20608;-68
2021/06/18 05:03:21;;;;;;;19.63;13.68;;;16.60;99.90;;;15.93;100.00;100567.38;4136756;28;20042;-67
2021/06/18 05:05:22;;;;;;;17.42;11.85;;;16.60;99.90;;;16.13;100.00;100563.00;4136697;28;20018;-67
2021/06/18 05:07:23;;;;;;;17.20;12.55;;;16.70;99.90;;;16.10;100.00;100566.03;4136697;28;20117;-67
2021/06/18 05:09:24;;;;;;;15.68;11.63;;;16.70;99.90;;;16.18;100.00;100565.06;4136732;28;20053;-68
2021/06/18 05:11:25;;;;;;;16.83;12.73;;;16.70;99.90;;;16.31;100.00;100571.28;4136672;28;20045;-67
2021/06/18 05:13:26;;;;;;;21.70;13.60;;;16.80;99.90;;;16.12;100.00;100571.19;4136643;28;20018;-67
2021/06/18 05:15:27;;;;;;;16.35;11.88;;;16.80;99.90;;;16.16;100.00;100565.25;4136314;28;20506;-68
2021/06/18 05:17:28;;;;;;;21.58;13.48;;;16.80;99.90;;;16.18;100.00;100570.41;4136712;28;20501;-67
2021/06/18 05:19:29;;;;;;;16.70;12.93;;;16.80;99.90;;;16.11;100.00;100554.38;4151561;28;20042;-68
2021/06/18 05:21:30;;;;;;;18.10;12.82;;;16.80;99.90;;;16.36;100.00;100574.19;4135332;28;20034;-67
2021/06/18 05:23:31;;;;;;;22.33;12.95;;;16.90;99.90;;;16.07;100.00;100562.97;4136567;28;20516;-67
2021/06/18 05:25:32;;;;;;;18.17;12.85;;;16.90;99.90;;;16.13;100.00;100572.84;4167914;28;20028;-67
2021/06/18 05:27:33;;;;;;;19.50;13.98;;;16.80;99.90;;;16.29;100.00;100583.97;4136460;28;20498;-67
2021/06/18 05:29:36;;;;;;;17.08;12.23;;;16.90;99.90;;;16.34;100.00;100562.91;4136033;28;20102;-67
2021/06/18 05:31:37;;;;;;;18.33;12.57;;;16.90;99.90;;;16.39;100.00;100575.63;4135094;28;20030;-68
2021/06/18 05:33:37;;;;;;;18.13;11.75;;;16.90;99.90;;;16.36;100.00;100576.84;4135276;28;20033;-68
2021/06/18 05:35:42;;;;;;;20.65;12.52;;;16.90;99.90;;;16.33;100.00;100573.75;4136378;28;20031;-67
2021/06/18 05:37:43;;;;;;;17.65;12.50;;;17.00;99.90;;;16.29;100.00;100581.31;4136246;28;20058;-68
2021/06/18 05:39:44;;;;;;;15.05;11.35;;;17.00;99.90;;;16.22;100.00;100576.97;4135957;28;20453;-67
2021/06/18 05:41:46;;;;;;;15.27;11.63;;;17.00;99.90;;;16.32;100.00;100582.75;4118830;28;20031;-67
2021/06/18 05:43:47;;;;;;;16.27;11.45;;;17.00;99.90;;;16.33;100.00;100581.75;4135933;28;20402;-68
2021/06/18 05:45:48;;;;;;;18.13;11.23;;;17.00;99.90;;;16.26;100.00;100584.38;4136312;28;20027;-67
2021/06/18 05:47:49;;;;;;;17.65;11.38;;;17.00;99.90;;;16.34;100.00;100576.22;4134638;28;20125;-67
2021/06/18 05:49:50;;;;;;;13.90;10.52;;;17.00;99.90;;;16.41;100.00;100582.41;4136191;28;20026;-67
2021/06/18 05:51:51;;;;;;;17.52;12.13;;;17.00;99.90;;;16.40;100.00;100579.91;4136078;28;20034;-67
2021/06/18 05:53:53;;;;;;;13.23;10.25;;;17.00;99.90;;;16.46;100.00;100574.63;4136068;28;20119;-68
2021/06/18 05:55:54;;;;;;;15.02;10.65;;;17.10;99.90;;;16.53;100.00;100588.81;4135927;28;20033;-68
2021/06/18 05:57:55;;;;;;;15.60;10.48;;;17.10;99.90;;;16.53;100.00;100588.81;4136090;28;20033;-67
2021/06/18 05:59:56;;;;;;;13.38;10.15;;;17.10;99.90;;;16.55;100.00;100586.78;4134549;28;20070;-68
2021/06/18 06:01:57;;;;;;;12.63;10.25;;;17.20;99.90;;;16.45;100.00;100588.16;4136047;28;20394;-68
2021/06/18 06:04:02;;;;;;;13.07;10.18;;;17.10;99.90;;;16.44;100.00;100582.00;4134672;28;20030;-67
2021/06/18 06:06:05;;;;;;;13.77;10.50;;;17.20;99.90;;;16.29;100.00;100591.13;4136094;28;20037;-67
2021/06/18 06:08:11;;;;;;;12.73;9.45;;;17.10;99.90;;;16.31;100.00;100587.25;4134760;28;20094;-67
2021/06/18 06:10:13;;;;;;;13.75;9.68;;;17.10;99.90;;;16.31;100.00;100587.25;4134728;28;20113;-67
2021/06/18 06:12:14;;;;;;;11.90;9.52;;;17.10;99.90;;;16.35;100.00;100596.50;4134727;28;20054;-68
2021/06/18 06:14:19;;;;;;;15.45;9.93;;;17.10;99.90;;;16.31;100.00;100589.91;4150436;28;20261;-67
2021/06/18 06:16:20;;;;;;;11.57;8.95;;;17.00;99.90;;;16.38;100.00;100598.75;4135879;28;20034;-68
2021/06/18 06:18:21;;;;;;;12.75;8.93;;;17.00;99.90;;;16.31;100.00;100591.75;4135934;28;20026;-67
2021/06/18 06:20:22;;;;;;;12.10;8.45;;;17.00;99.90;;;16.47;100.00;100602.06;4135849;28;20070;-67
2021/06/18 06:22:23;;;;;;;9.93;6.68;;;17.10;99.90;;;16.47;100.00;100608.22;4135813;28;20073;-67
2021/06/18 06:24:24;;;;;;;9.13;7.18;;;17.10;99.90;;;16.24;100.00;100599.72;4134463;28;20034;-67
2021/06/18 06:26:26;;;;;;;8.88;6.80;;;17.10;99.90;;;16.34;100.00;100602.00;4163831;28;20099;-68
2021/06/18 06:28:28;;;;;;;8.88;6.05;;;17.10;99.90;;;16.33;100.00;100603.88;4134687;28;20026;-68
2021/06/18 06:30:29;;;;;;;11.63;6.68;;;17.10;99.90;;;16.38;100.00;100605.94;4134453;28;20030;-68
2021/06/18 06:32:30;;;;;;;8.43;5.28;;;17.10;99.90;;;16.34;100.00;100597.50;4134559;28;20054;-68
2021/06/18 06:34:32;;;;;;;7.47;6.45;;;17.20;99.90;;;16.41;100.00;100617.00;4134684;28;20081;-67
2021/06/18 06:36:32;;;;;;;7.13;5.70;;;17.10;99.90;;;16.57;100.00;100619.38;4135745;28;20061;-68
2021/06/18 06:38:33;;;;;;;7.78;6.07;;;17.20;99.90;;;16.65;100.00;100618.38;4134404;28;20034;-69
2021/06/18 06:40:34;;;;;;;8.68;5.82;;;17.20;99.90;;;16.58;100.00;100615.69;4135707;28;20481;-67
2021/06/18 06:42:36;;;;;;;5.97;5.38;;;17.30;99.90;;;16.69;100.00;100627.63;4134432;28;20030;-68
2021/06/18 06:44:37;;;;;;;5.72;4.90;;;17.40;99.90;;;16.63;100.00;100617.78;4135248;28;20525;-67
2021/06/18 06:46:38;;;;;;;6.68;4.43;;;17.40;99.90;;;16.52;100.00;100615.63;4134498;28;20084;-67
2021/06/18 06:48:38;;;;;;;7.00;4.65;;;17.40;99.90;;;16.67;100.00;100620.84;4134423;28;20095;-68
2021/06/18 06:50:39;;;;;;;7.88;4.32;;;17.40;99.90;;;16.63;100.00;100632.91;4136037;28;20030;-67
2021/06/18 06:52:40;;;;;;;5.47;3.92;;;17.50;99.90;;;16.66;100.00;100622.69;4151594;28;20053;-68
2021/06/18 06:54:41;;;;;;;7.38;4.30;;;17.50;99.90;;;16.75;100.00;100629.50;4137702;28;20062;-67
2021/06/18 06:56:42;;;;;;;6.18;3.47;;;17.50;99.90;;;16.84;100.00;100635.47;4137655;28;20053;-68
2021/06/18 06:58:43;;;;;;;4.25;3.38;;;17.60;99.90;;;16.79;100.00;100632.56;4138567;28;20027;-67
2021/06/18 07:00:44;;;;;;;4.30;3.17;;;17.60;99.90;;;16.87;100.00;100637.75;4138604;28;20053;-68
2021/06/18 07:02:46;;;;;;;2.95;2.60;;;17.60;99.90;;;16.69;100.00;100650.78;4138695;28;20018;-67
2021/06/18 07:04:47;;;;;;;3.90;3.10;;;17.60;99.90;;;16.61;100.00;100641.09;4121235;28;20117;-68
2021/06/18 07:06:48;;;;;;;6.45;2.95;;;17.60;99.90;;;16.61;100.00;100645.63;4138512;28;20038;-67
2021/06/18 07:08:49;;;;;;;3.70;2.40;;;17.60;99.90;;;16.56;100.00;100639.03;4138526;28;20060;-67
2021/06/18 07:10:53;;;;;;;5.07;2.30;;;17.60;99.90;;;16.52;100.00;100637.75;4153656;28;20026;-67
2021/06/18 07:12:54;;;;;;;2.95;2.53;;;17.60;99.90;;;16.61;100.00;100638.44;4137494;28;20422;-68
2021/06/18 07:14:56;;;;;;;3.40;2.13;;;17.60;99.90;;;16.74;100.00;100635.00;4138224;28;20031;-67
2021/06/18 07:16:56;;;;;;;4.07;2.33;;;17.70;99.90;;;16.73;100.00;100647.50;4137009;28;20022;-68
2021/06/18 07:18:57;;;;;;;4.13;2.28;;;17.70;99.90;;;16.78;100.00;100641.59;4137184;28;20037;-67
2021/06/18 07:20:58;;;;;;;2.30;2.05;;;17.70;99.90;;;16.95;100.00;100638.38;4138472;28;20027;-67
2021/06/18 07:23:00;;;;;;;3.80;2.88;;;17.90;99.90;;;16.76;100.00;100643.63;4137244;28;20549;-67
2021/06/18 07:25:00;;;;;;;3.40;2.28;;;17.80;99.90;;;16.95;100.00;100641.06;4138197;28;20030;-67
2021/06/18 07:27:02;;;;;;;2.70;2.30;;;17.90;99.90;;;17.02;100.00;100649.06;4153280;28;20088;-68
2021/06/18 07:29:03;;;;;;;3.95;2.30;;;18.00;99.90;;;17.12;100.00;100633.50;4136718;28;20068;-67
2021/06/18 07:31:04;;;;;;;4.78;2.25;;;18.10;99.90;;;17.17;100.00;100640.91;4153320;28;20152;-67
2021/06/18 07:33:06;;;;;;;2.83;2.10;;;18.20;99.90;;;17.47;100.00;100650.22;4136907;28;20027;-67
2021/06/18 07:35:08;;;;;;;3.05;2.15;;;18.30;99.90;;;17.68;100.00;100656.19;4138209;28;20026;-67
2021/06/18 07:37:08;;;;;;;5.45;2.33;;;18.50;99.90;;;17.60;100.00;100653.72;4138319;28;20490;-68
2021/06/18 07:39:09;;;;;;;5.45;1.80;;;18.70;99.90;;;17.89;100.00;100651.72;4138011;28;20065;-68
2021/06/18 07:41:10;;;;;;;3.58;1.80;;;18.80;99.90;;;17.52;100.00;100658.41;4137962;28;20112;-68
2021/06/18 07:43:12;;;;;;;4.03;1.90;;;18.90;99.90;;;17.59;100.00;100648.63;4137905;28;20082;-67
2021/06/18 07:45:14;;;;;;;4.35;1.92;;;18.90;99.90;;;17.83;100.00;100657.88;4152919;28;20030;-68
2021/06/18 07:47:15;;;;;;;3.33;2.05;;;19.00;99.90;;;17.67;99.34;100657.25;4136694;28;20057;-67
2021/06/18 07:49:16;;;;;;;6.25;2.72;;;19.00;99.90;;;17.57;99.97;100647.97;4136596;28;20030;-67
2021/06/18 07:51:18;;;;;;;3.13;1.80;;;19.00;99.90;;;17.58;100.00;100655.78;4137901;28;20113;-67
2021/06/18 07:53:19;;;;;;;5.55;1.98;;;18.90;99.90;;;17.95;100.00;100665.03;4136661;28;20027;-68
2021/06/18 07:55:22;;;;;;;4.72;2.50;;;18.90;99.90;;;17.75;100.00;100660.72;4136699;28;20036;-68
2021/06/18 07:57:23;;;;;;;3.00;1.88;;;19.00;99.90;;;17.94;99.25;100673.25;4136546;28;20062;-68
2021/06/18 07:59:24;;;;;;;2.20;1.60;;;19.10;99.90;;;18.07;99.31;100673.25;4137511;28;20053;-68
2021/06/18 08:01:25;;;;;;;3.17;2.30;;;19.10;99.90;;;18.18;99.48;100677.97;4136513;28;20033;-68
2021/06/18 08:03:26;;;;;;;4.35;1.95;;;19.20;99.90;;;18.10;99.13;100667.47;4136141;28;20521;-68
2021/06/18 08:05:27;;;;;;;2.50;1.83;;;19.20;99.90;;;18.10;99.40;100687.00;4136852;28;20069;-68
2021/06/18 08:07:28;;;;;;;3.38;1.95;;;19.20;99.90;;;18.08;99.12;100688.22;4136280;28;20069;-67
2021/06/18 08:09:29;;;;;;;3.88;1.92;;;19.20;99.90;;;18.15;98.37;100691.72;4137682;28;20390;-67
2021/06/18 08:11:30;;;;;;;7.80;2.38;;;19.20;99.90;;;18.20;97.31;100697.25;4137611;28;20397;-67
2021/06/18 08:13:31;;;;;;;2.80;1.70;;;19.20;99.90;;;18.12;98.54;100692.97;4120182;28;20500;-67
2021/06/18 08:15:32;;;;;;;2.35;1.58;;;19.20;99.90;;;18.20;98.35;100690.09;4136048;28;20035;-67
2021/06/18 08:17:34;;;;;;;4.28;1.88;;;19.30;99.90;;;18.10;99.73;100695.00;4152253;28;20089;-68
2021/06/18 08:19:35;;;;;;;3.90;1.77;;;19.30;99.90;;;18.08;99.28;100699.75;4136311;28;20037;-68
2021/06/18 08:21:36;;;;;;;3.67;1.80;;;19.30;99.90;;;18.33;99.25;100705.28;4136252;28;20031;-68
2021/06/18 08:23:38;;;;;;;2.90;1.90;;;19.30;99.90;;;18.27;97.32;100694.59;4137332;28;20105;-68